KHAF

Half Moon Bay Airport

Half Moon Bay, California, USA
METAR KHAF 241340Z AUTO 00000KT 4SM BR OVC015 11/09 A3004 RMK AO2
Observed Flight Rules
May-24 @ 13:40 UTC (11 minutes ago) Marginal Visual Flight Rules
Visibility Clouds Conditions
4 miles
  • Overcast at 1,500' AGL
  • Mist
Temperatures Readings
Current 11°C / 52°F
Dewpoint 9°C / 48°F
Humidity 88%
Altimeter 30.04" Hg
Pressure 1017 hPa
Elevation 21
METAR KHAF 241340Z AUTO 00000KT 4SM BR OVC015 11/09 A3004 RMK AO2
Observed Flight Rules
May-24 @ 13:40 UTC
(11 minutes ago)
MVFR
Clouds
  • Overcast at 1,500' AGL
Conditions
  • Mist
Temperature Dewpoint
11°C / 52°F 9°C / 48°F
Humidity Altimeter Pressure
88% 30.04" Hg 1017 hPa